Wetterstation Vordersexau
Wetterdaten: Woche 24.09.12 - 30.09.12 (KW39)
Datum Zeit Temp. A. Feuchte A. Luftdruck Regen Wind Richtung Taupunkt Windchill Windben
24.09.2012 00:00 12,3 C 79 % 1002,5 hPa 0,0 l/m 0,0 km/h NO 8,8 C 12,3 C 0,0 km/h
24.09.2012 01:00 11,7 C 78 % 1002,1 hPa 0,0 l/m 0,0 km/h O-NO 8,0 C 11,7 C 0,0 km/h
24.09.2012 02:00 11,6 C 76 % 1001,5 hPa 0,0 l/m 0,0 km/h SO 7,5 C 11,6 C 0,0 km/h
24.09.2012 03:00 11,9 C 74 % 1000,7 hPa 0,0 l/m 0,0 km/h W-NW 7,4 C 11,9 C 0,0 km/h
24.09.2012 04:00 12,5 C 71 % 1000,7 hPa 0,0 l/m 0,0 km/h SO 7,4 C 12,5 C 0,0 km/h
24.09.2012 05:00 11,8 C 71 % 999,9 hPa 0,0 l/m 0,0 km/h NO 6,7 C 11,8 C 0,0 km/h
24.09.2012 06:00 12,9 C 69 % 998,8 hPa 0,0 l/m 0,0 km/h NO 7,4 C 12,9 C 0,0 km/h
24.09.2012 07:00 13,3 C 67 % 998,8 hPa 0,0 l/m 0,0 km/h NW 7,3 C 13,3 C 0,0 km/h
24.09.2012 08:00 13,6 C 65 % 999,6 hPa 0,0 l/m 0,0 km/h S-SW 7,1 C 13,6 C 0,0 km/h
24.09.2012 09:00 16,0 C 65 % 1001,1 hPa 0,0 l/m 9,7 km/h W 9,4 C 14,4 C 5,4 km/h
24.09.2012 10:00 15,4 C 82 % 1001,2 hPa 0,4 l/m 0,0 km/h SW 12,3 C 15,4 C 0,0 km/h
24.09.2012 11:00 18,6 C 83 % 1000,3 hPa 0,0 l/m 0,0 km/h S 15,7 C 18,6 C 0,0 km/h
24.09.2012 12:00 23,1 C 63 % 999,2 hPa 0,0 l/m 14,9 km/h SW 15,7 C 21,0 C 8,3 km/h
24.09.2012 13:00 22,8 C 58 % 999,5 hPa 0,4 l/m 20,7 km/h S-SW 14,1 C 19,7 C 11,5 km/h
24.09.2012 14:00 23,3 C 58 % 999,4 hPa 0,0 l/m 9,7 km/h W-NW 14,6 C 22,4 C 5,4 km/h
24.09.2012 15:00 20,2 C 72 % 1000,7 hPa 3,2 l/m 35,6 km/h SW 15,0 C 14,4 C 19,8 km/h
24.09.2012 16:00 21,3 C 63 % 1001,7 hPa 0,0 l/m 33,0 km/h W-SW 14,0 C 16,2 C 18,4 km/h
24.09.2012 17:00 20,1 C 63 % 1002,5 hPa 0,0 l/m 8,4 km/h SW 12,8 C 19,3 C 4,7 km/h
24.09.2012 18:00 18,8 C 64 % 1003,4 hPa 0,0 l/m 11,0 km/h SW 11,8 C 17,0 C 6,1 km/h
24.09.2012 19:00 17,2 C 68 % 1004,4 hPa 0,0 l/m 3,9 km/h S 11,2 C 17,2 C 2,2 km/h
24.09.2012 20:00 15,9 C 70 % 1004,2 hPa 0,0 l/m 9,7 km/h W-SW 10,4 C 14,2 C 5,4 km/h
24.09.2012 21:00 16,4 C 67 % 1004,8 hPa 0,0 l/m 12,3 km/h W 10,3 C 13,8 C 6,8 km/h
24.09.2012 22:00 15,9 C 66 % 1004,8 hPa 0,0 l/m 5,2 km/h W-SW 9,6 C 15,9 C 2,9 km/h
24.09.2012 23:00 14,4 C 69 % 1004,4 hPa 0,0 l/m 0,0 km/h W 8,8 C 14,4 C 0,0 km/h
25.09.2012 00:00 12,4 C 77 % 1003,9 hPa 0,0 l/m 0,0 km/h S 8,5 C 12,4 C 0,0 km/h
25.09.2012 01:00 14,4 C 74 % 1003,5 hPa 0,0 l/m 21,4 km/h W 9,8 C 8,6 C 11,9 km/h
25.09.2012 02:00 15,0 C 69 % 1003,3 hPa 0,0 l/m 0,0 km/h W 9,4 C 15,0 C 0,0 km/h
25.09.2012 03:00 16,3 C 65 % 1003,3 hPa 0,0 l/m 10,4 km/h W 9,7 C 14,4 C 5,8 km/h
25.09.2012 04:00 16,2 C 64 % 1002,2 hPa 0,0 l/m 21,4 km/h N-NO 9,4 C 11,0 C 11,9 km/h
25.09.2012 05:00 14,6 C 67 % 1002,0 hPa 0,0 l/m 0,0 km/h S-SW 8,5 C 14,6 C 0,0 km/h
25.09.2012 06:00 16,1 C 62 % 1001,5 hPa 0,0 l/m 9,1 km/h S-SW 8,8 C 14,7 C 5,0 km/h
25.09.2012 07:00 17,3 C 59 % 1000,7 hPa 0,0 l/m 1,3 km/h SO 9,2 C 17,3 C 0,7 km/h
25.09.2012 08:00 17,1 C 62 % 1000,3 hPa 0,0 l/m 5,2 km/h S 9,8 C 17,1 C 2,9 km/h
25.09.2012 09:00 18,7 C 57 % 999,9 hPa 0,0 l/m 0,0 km/h S-SW 10,0 C 18,7 C 0,0 km/h
25.09.2012 10:00 21,3 C 53 % 999,7 hPa 0,0 l/m 4,5 km/h W-SW 11,3 C 21,3 C 2,5 km/h
25.09.2012 11:00 21,5 C 49 % 1000,0 hPa 0,0 l/m 17,5 km/h W 10,3 C 18,6 C 9,7 km/h
25.09.2012 12:00 22,8 C 48 % 1000,0 hPa 0,0 l/m 5,8 km/h N-NW 11,2 C 22,8 C 3,2 km/h
25.09.2012 13:00 17,8 C 63 % 1001,2 hPa 0,0 l/m 0,0 km/h N 10,7 C 17,8 C 0,0 km/h
25.09.2012 14:00 13,3 C 80 % 1003,1 hPa 2,1 l/m 3,2 km/h N-NO 9,9 C 13,3 C 1,8 km/h
25.09.2012 15:00 12,2 C 82 % 1003,6 hPa 3,2 l/m 0,0 km/h NO 9,2 C 12,2 C 0,0 km/h
25.09.2012 16:00 11,9 C 82 % 1002,0 hPa 1,4 l/m 0,0 km/h SO 8,9 C 11,9 C 0,0 km/h
25.09.2012 17:00 12,4 C 83 % 1002,5 hPa 0,7 l/m 0,0 km/h SO 9,6 C 12,4 C 0,0 km/h
25.09.2012 18:00 11,9 C 82 % 1000,8 hPa 0,7 l/m 9,7 km/h SW 8,9 C 9,9 C 5,4 km/h
25.09.2012 19:00 11,9 C 82 % 1001,4 hPa 0,0 l/m 0,0 km/h S-SO 8,9 C 11,9 C 0,0 km/h
25.09.2012 20:00 11,7 C 81 % 1001,4 hPa 0,0 l/m 0,0 km/h N-NO 8,5 C 11,7 C 0,0 km/h
25.09.2012 21:00 11,3 C 80 % 1001,2 hPa 0,0 l/m 0,0 km/h SO 8,0 C 11,3 C 0,0 km/h
25.09.2012 22:00 11,1 C 79 % 1000,8 hPa 0,0 l/m 0,0 km/h W 7,6 C 11,1 C 0,0 km/h
25.09.2012 23:00 10,5 C 79 % 1000,6 hPa 0,0 l/m 0,0 km/h N 7,0 C 10,5 C 0,0 km/h
26.09.2012 00:00 11,2 C 74 % 1000,3 hPa 0,0 l/m 0,0 km/h S-SO 6,7 C 11,2 C 0,0 km/h
26.09.2012 01:00 11,1 C 73 % 1000,1 hPa 0,0 l/m 0,0 km/h SO 6,4 C 11,1 C 0,0 km/h
26.09.2012 02:00 10,9 C 74 % 999,7 hPa 0,0 l/m 0,0 km/h SO 6,5 C 10,9 C 0,0 km/h
26.09.2012 03:00 10,8 C 73 % 999,7 hPa 0,0 l/m 0,0 km/h O-NO 6,2 C 10,8 C 0,0 km/h
26.09.2012 04:00 11,1 C 72 % 998,9 hPa 0,0 l/m 0,0 km/h NO 6,2 C 11,1 C 0,0 km/h
26.09.2012 05:00 9,6 C 75 % 998,4 hPa 0,0 l/m 0,0 km/h S-SO 5,4 C 9,6 C 0,0 km/h
26.09.2012 06:00 10,6 C 72 % 998,7 hPa 0,0 l/m 1,3 km/h SO 5,8 C 10,6 C 0,7 km/h
26.09.2012 07:00 9,9 C 72 % 998,7 hPa 0,0 l/m 0,0 km/h O-NO 5,1 C 9,9 C 0,0 km/h
26.09.2012 08:00 10,4 C 70 % 999,0 hPa 0,0 l/m 0,0 km/h SO 5,2 C 10,4 C 0,0 km/h
26.09.2012 09:00 13,3 C 58 % 999,1 hPa 0,0 l/m 0,0 km/h N-NW 5,2 C 13,3 C 0,0 km/h
26.09.2012 10:00 14,6 C 83 % 1000,7 hPa 0,0 l/m 0,0 km/h N 11,7 C 14,6 C 0,0 km/h
26.09.2012 11:00 14,5 C 83 % 1000,7 hPa 0,0 l/m 0,0 km/h W 11,6 C 14,5 C 0,0 km/h
26.09.2012 12:00 17,3 C 80 % 1001,1 hPa 0,0 l/m 0,0 km/h W 13,8 C 17,3 C 0,0 km/h
26.09.2012 13:00 15,9 C 79 % 1002,2 hPa 0,0 l/m 1,9 km/h W-NW 12,3 C 15,9 C 1,1 km/h
26.09.2012 14:00 17,6 C 75 % 1001,7 hPa 0,0 l/m 1,9 km/h W 13,1 C 17,6 C 1,1 km/h
26.09.2012 15:00 16,9 C 75 % 1002,6 hPa 0,0 l/m 0,0 km/h W 12,4 C 16,9 C 0,0 km/h
26.09.2012 16:00 14,7 C 82 % 1003,2 hPa 0,0 l/m 0,0 km/h W 11,7 C 14,7 C 0,0 km/h
26.09.2012 17:00 13,9 C 82 % 1004,0 hPa 0,0 l/m 8,4 km/h SW 10,9 C 12,7 C 4,7 km/h
26.09.2012 18:00 12,6 C 83 % 1004,2 hPa 0,4 l/m 2,6 km/h S 9,8 C 12,6 C 1,4 km/h
26.09.2012 19:00 11,6 C 83 % 1004,4 hPa 0,4 l/m 2,6 km/h O-NO 8,8 C 11,6 C 1,4 km/h
26.09.2012 20:00 11,4 C 81 % 1003,8 hPa 0,0 l/m 0,0 km/h NW 8,3 C 11,4 C 0,0 km/h
26.09.2012 21:00 11,2 C 81 % 1004,3 hPa 0,0 l/m 1,3 km/h W-SW 8,1 C 11,2 C 0,7 km/h
26.09.2012 22:00 10,8 C 79 % 1004,8 hPa 0,4 l/m 0,0 km/h W-NW 7,3 C 10,8 C 0,0 km/h
26.09.2012 23:00 10,8 C 77 % 1005,2 hPa 0,7 l/m 0,0 km/h S-SW 6,9 C 10,8 C 0,0 km/h
27.09.2012 00:00 10,4 C 75 % 1005,9 hPa 0,4 l/m 20,1 km/h S 6,2 C 3,8 C 11,2 km/h
27.09.2012 01:00 10,3 C 76 % 1006,4 hPa 0,4 l/m 25,3 km/h W-SW 6,3 C 2,2 C 14,0 km/h
27.09.2012 02:00 9,9 C 78 % 1007,6 hPa 0,4 l/m 10,4 km/h SW 6,2 C 7,3 C 5,8 km/h
27.09.2012 03:00 9,4 C 79 % 1007,6 hPa 0,4 l/m 0,0 km/h SO 5,9 C 9,4 C 0,0 km/h
27.09.2012 04:00 8,6 C 79 % 1007,5 hPa 0,0 l/m 6,5 km/h O-SO 5,2 C 8,5 C 3,6 km/h
27.09.2012 05:00 7,4 C 78 % 1007,7 hPa 0,0 l/m 0,0 km/h O-SO 3,8 C 7,4 C 0,0 km/h
27.09.2012 06:00 7,9 C 76 % 1007,7 hPa 0,0 l/m 0,0 km/h O-SO 3,9 C 7,9 C 0,0 km/h
27.09.2012 07:00 8,7 C 73 % 1008,0 hPa 0,0 l/m 0,0 km/h O-SO 4,1 C 8,7 C 0,0 km/h
27.09.2012 08:00 9,8 C 70 % 1008,6 hPa 0,0 l/m 0,0 km/h SO 4,6 C 9,8 C 0,0 km/h
27.09.2012 09:00 12,2 C 70 % 1008,8 hPa 0,0 l/m 0,0 km/h W-NW 6,9 C 12,2 C 0,0 km/h
27.09.2012 10:00 14,9 C 83 % 1009,3 hPa 0,0 l/m 0,0 km/h SW 12,0 C 14,9 C 0,0 km/h
27.09.2012 11:00 17,8 C 68 % 1009,2 hPa 0,0 l/m 7,8 km/h W 11,8 C 17,1 C 4,3 km/h
27.09.2012 12:00 17,4 C 64 % 1009,3 hPa 0,0 l/m 13,6 km/h W-SW 10,5 C 14,5 C 7,6 km/h
27.09.2012 13:00 19,4 C 59 % 1008,9 hPa 0,0 l/m 7,8 km/h SW 11,2 C 18,8 C 4,3 km/h
27.09.2012 14:00 18,2 C 65 % 1008,8 hPa 0,0 l/m 0,6 km/h W 11,5 C 18,2 C 0,4 km/h
27.09.2012 15:00 21,5 C 51 % 1008,9 hPa 0,0 l/m 20,7 km/h W 10,9 C 18,0 C 11,5 km/h
27.09.2012 16:00 18,9 C 53 % 1008,9 hPa 0,0 l/m 8,4 km/h SW 9,1 C 18,0 C 4,7 km/h
27.09.2012 17:00 12,9 C 81 % 1011,4 hPa 1,4 l/m 0,6 km/h S 9,7 C 12,9 C 0,4 km/h
27.09.2012 18:00 16,9 C 66 % 1011,5 hPa 0,4 l/m 22,0 km/h SO 10,5 C 11,8 C 12,2 km/h
27.09.2012 19:00 13,8 C 76 % 1012,0 hPa 0,0 l/m 7,1 km/h W-NW 9,6 C 13,4 C 4,0 km/h
27.09.2012 20:00 12,5 C 82 % 1013,4 hPa 0,0 l/m 0,0 km/h W-SW 9,5 C 12,5 C 0,0 km/h
27.09.2012 21:00 12,8 C 81 % 1014,1 hPa 0,0 l/m 5,2 km/h S-SW 9,6 C 12,8 C 2,9 km/h
27.09.2012 22:00 13,1 C 77 % 1014,6 hPa 0,0 l/m 4,5 km/h W 9,2 C 13,1 C 2,5 km/h
27.09.2012 23:00 13,0 C 79 % 1015,5 hPa 0,0 l/m 7,1 km/h S 9,4 C 12,6 C 4,0 km/h
28.09.2012 00:00 12,8 C 79 % 1016,1 hPa 0,0 l/m 0,0 km/h S 9,2 C 12,8 C 0,0 km/h
28.09.2012 01:00 13,2 C 77 % 1016,7 hPa 0,0 l/m 17,5 km/h W-SW 9,3 C 8,2 C 9,7 km/h
28.09.2012 02:00 13,0 C 79 % 1017,1 hPa 0,0 l/m 1,9 km/h W 9,4 C 13,0 C 1,1 km/h
28.09.2012 03:00 11,6 C 81 % 1017,1 hPa 0,0 l/m 0,0 km/h N-NO 8,5 C 11,6 C 0,0 km/h
28.09.2012 04:00 9,2 C 83 % 1017,1 hPa 0,0 l/m 0,0 km/h SO 6,5 C 9,2 C 0,0 km/h
28.09.2012 05:00 8,1 C 83 % 1016,9 hPa 0,0 l/m 0,0 km/h SO 5,4 C 8,1 C 0,0 km/h
28.09.2012 06:00 7,5 C 82 % 1017,0 hPa 0,0 l/m 0,0 km/h SO 4,6 C 7,5 C 0,0 km/h
28.09.2012 07:00 7,5 C 81 % 1016,7 hPa 0,0 l/m 0,0 km/h SO 4,5 C 7,5 C 0,0 km/h
28.09.2012 08:00 8,3 C 78 % 1017,1 hPa 0,0 l/m 0,6 km/h SO 4,7 C 8,3 C 0,4 km/h
28.09.2012 09:00 12,5 C 63 % 1017,7 hPa 0,0 l/m 2,6 km/h SO 5,7 C 12,5 C 1,4 km/h
28.09.2012 10:00 19,3 C 72 % 1017,8 hPa 0,0 l/m 0,0 km/h W-NW 14,1 C 19,3 C 0,0 km/h
28.09.2012 11:00 23,5 C 53 % 1017,6 hPa 0,0 l/m 0,0 km/h N-NO 13,4 C 23,5 C 0,0 km/h
28.09.2012 12:00 23,6 C 49 % 1017,3 hPa 0,0 l/m 0,0 km/h W 12,2 C 23,6 C 0,0 km/h
28.09.2012 13:00 23,3 C 48 % 1016,9 hPa 0,0 l/m 0,0 km/h W 11,7 C 23,3 C 0,0 km/h
28.09.2012 14:00 22,9 C 47 % 1016,5 hPa 0,0 l/m 1,3 km/h SW 11,0 C 22,9 C 0,7 km/h
28.09.2012 15:00 25,0 C 43 % 1016,0 hPa 0,0 l/m 1,3 km/h N-NO 11,5 C 25,0 C 0,7 km/h
28.09.2012 16:00 26,9 C 36 % 1015,6 hPa 0,0 l/m 0,0 km/h N-NO 10,6 C 26,9 C 0,0 km/h
28.09.2012 17:00 28,8 C 33 % 1014,8 hPa 0,0 l/m 1,9 km/h O-SO 10,9 C 28,8 C 1,1 km/h
28.09.2012 18:00 28,2 C 34 % 1014,7 hPa 0,0 l/m 0,0 km/h O-NO 10,8 C 28,2 C 0,0 km/h
28.09.2012 19:00 14,9 C 62 % 1015,1 hPa 0,0 l/m 0,0 km/h SO 7,7 C 14,9 C 0,0 km/h
28.09.2012 20:00 10,9 C 77 % 1015,4 hPa 0,0 l/m 0,0 km/h S-SO 7,0 C 10,9 C 0,0 km/h
28.09.2012 21:00 10,2 C 82 % 1015,6 hPa 0,0 l/m 1,3 km/h SO 7,3 C 10,2 C 0,7 km/h
28.09.2012 22:00 9,9 C 83 % 1015,8 hPa 0,0 l/m 0,0 km/h SO 7,2 C 9,9 C 0,0 km/h
28.09.2012 23:00 9,5 C 83 % 1015,7 hPa 0,0 l/m 0,0 km/h SO 6,8 C 9,5 C 0,0 km/h
29.09.2012 00:00 9,1 C 83 % 1015,8 hPa 0,0 l/m 0,0 km/h SO 6,4 C 9,1 C 0,0 km/h
29.09.2012 01:00 8,1 C 83 % 1015,8 hPa 0,0 l/m 0,0 km/h O-SO 5,4 C 8,1 C 0,0 km/h
29.09.2012 02:00 7,3 C 83 % 1015,8 hPa 0,0 l/m 0,0 km/h O-SO 4,6 C 7,3 C 0,0 km/h
29.09.2012 03:00 7,3 C 82 % 1015,3 hPa 0,0 l/m 0,0 km/h O-SO 4,4 C 7,3 C 0,0 km/h
29.09.2012 04:00 6,4 C 82 % 1015,2 hPa 0,0 l/m 0,0 km/h O-SO 3,6 C 6,4 C 0,0 km/h
29.09.2012 05:00 6,1 C 82 % 1014,9 hPa 0,0 l/m 0,0 km/h SO 3,3 C 6,1 C 0,0 km/h
29.09.2012 06:00 6,7 C 81 % 1015,2 hPa 0,0 l/m 0,0 km/h O 3,7 C 6,7 C 0,0 km/h
29.09.2012 07:00 7,6 C 78 % 1015,5 hPa 0,0 l/m 0,0 km/h O-SO 4,0 C 7,6 C 0,0 km/h
29.09.2012 08:00 8,4 C 76 % 1015,5 hPa 0,0 l/m 0,0 km/h SO 4,4 C 8,4 C 0,0 km/h
29.09.2012 09:00 11,6 C 72 % 1015,5 hPa 0,0 l/m 0,0 km/h NO 6,7 C 11,6 C 0,0 km/h
29.09.2012 10:00 19,0 C 73 % 1015,8 hPa 0,0 l/m 0,0 km/h W-NW 14,0 C 19,0 C 0,0 km/h
29.09.2012 11:00 17,1 C 68 % 1016,0 hPa 0,0 l/m 0,0 km/h SW 11,1 C 17,1 C 0,0 km/h
29.09.2012 12:00 16,5 C 67 % 1015,8 hPa 0,0 l/m 0,0 km/h W-NW 10,4 C 16,5 C 0,0 km/h
29.09.2012 13:00 16,3 C 70 % 1015,6 hPa 0,0 l/m 0,0 km/h W-SW 10,8 C 16,3 C 0,0 km/h
29.09.2012 14:00 16,5 C 68 % 1015,4 hPa 0,0 l/m 0,0 km/h W 10,6 C 16,5 C 0,0 km/h
29.09.2012 15:00 16,9 C 68 % 1015,5 hPa 0,0 l/m 0,0 km/h W-SW 11,0 C 16,9 C 0,0 km/h
29.09.2012 16:00 16,2 C 70 % 1015,7 hPa 0,0 l/m 2,6 km/h W-SW 10,7 C 16,2 C 1,4 km/h
29.09.2012 17:00 16,1 C 70 % 1015,4 hPa 0,0 l/m 0,0 km/h W 10,6 C 16,1 C 0,0 km/h
29.09.2012 18:00 17,4 C 67 % 1015,6 hPa 0,0 l/m 0,0 km/h W 11,2 C 17,4 C 0,0 km/h
29.09.2012 19:00 12,1 C 78 % 1016,2 hPa 0,0 l/m 0,0 km/h SO 8,4 C 12,1 C 0,0 km/h
29.09.2012 20:00 10,1 C 83 % 1016,8 hPa 0,0 l/m 0,0 km/h O-SO 7,3 C 10,1 C 0,0 km/h
29.09.2012 21:00 9,1 C 83 % 1017,5 hPa 0,0 l/m 0,0 km/h SO 6,4 C 9,1 C 0,0 km/h
29.09.2012 22:00 8,7 C 83 % 1017,8 hPa 0,0 l/m 1,3 km/h NO 6,0 C 8,7 C 0,7 km/h
29.09.2012 23:00 8,6 C 81 % 1018,1 hPa 0,0 l/m 0,0 km/h SO 5,5 C 8,6 C 0,0 km/h
30.09.2012 00:00 7,9 C 80 % 1018,5 hPa 0,0 l/m 7,8 km/h NO 4,7 C 6,8 C 4,3 km/h
30.09.2012 01:00 7,8 C 80 % 1018,6 hPa 0,0 l/m 0,0 km/h SO 4,6 C 7,8 C 0,0 km/h
30.09.2012 02:00 7,2 C 79 % 1018,3 hPa 0,0 l/m 0,0 km/h S-SO 3,8 C 7,2 C 0,0 km/h
30.09.2012 03:00 7,2 C 79 % 1018,3 hPa 0,0 l/m 8,4 km/h S-SO 3,8 C 5,6 C 4,7 km/h
30.09.2012 04:00 6,9 C 78 % 1018,4 hPa 0,0 l/m 5,2 km/h N 3,3 C 6,9 C 2,9 km/h
30.09.2012 05:00 5,3 C 79 % 1018,7 hPa 0,0 l/m 0,0 km/h O 2,0 C 5,3 C 0,0 km/h
30.09.2012 06:00 4,2 C 79 % 1018,7 hPa 0,0 l/m 0,0 km/h N 0,9 C 4,2 C 0,0 km/h
30.09.2012 07:00 5,2 C 77 % 1018,9 hPa 0,0 l/m 0,0 km/h NW 1,5 C 5,2 C 0,0 km/h
30.09.2012 08:00 6,6 C 73 % 1018,8 hPa 0,0 l/m 0,0 km/h W-SW 2,1 C 6,6 C 0,0 km/h
30.09.2012 09:00 7,8 C 70 % 1019,3 hPa 0,0 l/m 0,0 km/h NW 2,7 C 7,8 C 0,0 km/h
30.09.2012 10:00 10,3 C 71 % 1019,9 hPa 0,0 l/m 1,9 km/h NW 5,3 C 10,3 C 1,1 km/h
30.09.2012 11:00 11,7 C 83 % 1019,5 hPa 0,0 l/m 0,0 km/h W 8,9 C 11,7 C 0,0 km/h
30.09.2012 12:00 12,1 C 83 % 1019,1 hPa 0,0 l/m 0,0 km/h W-NW 9,3 C 12,1 C 0,0 km/h
30.09.2012 13:00 10,9 C 84 % 1019,7 hPa 0,0 l/m 0,0 km/h S 8,3 C 10,9 C 0,0 km/h
30.09.2012 14:00 12,3 C 84 % 1019,2 hPa 0,0 l/m 0,0 km/h S-SW 9,7 C 12,3 C 0,0 km/h
30.09.2012 15:00 14,8 C 79 % 1018,8 hPa 0,0 l/m 0,0 km/h S-SW 11,2 C 14,8 C 0,0 km/h
30.09.2012 16:00 14,7 C 77 % 1018,6 hPa 0,0 l/m 0,0 km/h SO 10,7 C 14,7 C 0,0 km/h
30.09.2012 17:00 14,1 C 79 % 1018,2 hPa 0,0 l/m 0,0 km/h S-SO 10,5 C 14,1 C 0,0 km/h
30.09.2012 18:00 13,3 C 82 % 1018,1 hPa 0,0 l/m 0,0 km/h O-SO 10,3 C 13,3 C 0,0 km/h
30.09.2012 19:00 12,5 C 83 % 1018,0 hPa 0,0 l/m 0,0 km/h O-NO 9,7 C 12,5 C 0,0 km/h
30.09.2012 20:00 12,1 C 84 % 1018,2 hPa 0,0 l/m 0,0 km/h N-NO 9,5 C 12,1 C 0,0 km/h
30.09.2012 21:00 12,0 C 84 % 1017,4 hPa 0,0 l/m 0,0 km/h NO 9,4 C 12,0 C 0,0 km/h
30.09.2012 22:00 11,9 C 83 % 1018,0 hPa 0,0 l/m 0,0 km/h O-NO 9,1 C 11,9 C 0,0 km/h
30.09.2012 23:00 11,9 C 82 % 1018,1 hPa 0,0 l/m 0,0 km/h O-NO 8,9 C 11,9 C 0,0 km/h
Min-Datum _ 30.09.12 28.09.12 26.09.12 - 24.09.12 - 30.09.12 27.09.12 24.09.12
_ Min-Zeit 06:19 17:19 05:19 - 00:19 - 06:19 01:19 00:19
Minimum _ 4,2 C 33 % 998,4 hPa - 0,0 km/h - 0,9 C 2,2 C 0,0 km/h
Max-Datum _ 28.09.12 30.09.12 30.09.12 24.09.12 24.09.12 - 24.09.12 28.09.12 24.09.12
_ Max-Zeit 17:19 13:19 10:19 15:19 15:19 - 12:19 17:19 15:19
Maximum _ 28,8 C 84 % 1019,9 hPa 3,2 l/m 35,6 km/h
SW
- 15,7 C 28,8 C 19,8 km/h
SW
Durchschnitt _ 13,5 C 73 % 1009,3 hPa #17,1 l/m 3,1 km/h SO 8,5 C 13,0 C 1,7 km/h
www.sexauwetter.de